sensor_id;sensor_type;location;lat;lon;timestamp;temperature;humidity
5196;DHT22;2617;51.006;12.436;2022-07-25T00:04:50;19.40;88.70
5196;DHT22;2617;51.006;12.436;2022-07-25T00:09:52;19.30;89.20
5196;DHT22;2617;51.006;12.436;2022-07-25T00:14:55;19.00;90.50
5196;DHT22;2617;51.006;12.436;2022-07-25T00:19:59;18.90;91.20
5196;DHT22;2617;51.006;12.436;2022-07-25T00:25:02;18.80;92.00
5196;DHT22;2617;51.006;12.436;2022-07-25T00:30:05;18.70;92.00
5196;DHT22;2617;51.006;12.436;2022-07-25T00:35:08;18.50;93.90
5196;DHT22;2617;51.006;12.436;2022-07-25T00:40:11;18.50;93.90
5196;DHT22;2617;51.006;12.436;2022-07-25T00:45:14;18.30;94.70
5196;DHT22;2617;51.006;12.436;2022-07-25T00:50:16;18.10;95.60
5196;DHT22;2617;51.006;12.436;2022-07-25T00:55:19;18.00;96.30
5196;DHT22;2617;51.006;12.436;2022-07-25T01:00:22;17.90;97.00
5196;DHT22;2617;51.006;12.436;2022-07-25T01:05:24;17.80;97.50
5196;DHT22;2617;51.006;12.436;2022-07-25T01:10:28;17.60;98.00
5196;DHT22;2617;51.006;12.436;2022-07-25T01:15:29;17.60;98.70
5196;DHT22;2617;51.006;12.436;2022-07-25T01:20:32;17.60;98.70
5196;DHT22;2617;51.006;12.436;2022-07-25T01:25:34;17.60;98.90
5196;DHT22;2617;51.006;12.436;2022-07-25T01:30:37;17.50;99.30
5196;DHT22;2617;51.006;12.436;2022-07-25T01:35:40;17.40;99.20
5196;DHT22;2617;51.006;12.436;2022-07-25T01:40:44;17.40;99.60
5196;DHT22;2617;51.006;12.436;2022-07-25T01:45:45;17.50;99.90
5196;DHT22;2617;51.006;12.436;2022-07-25T01:50:47;17.40;99.90
5196;DHT22;2617;51.006;12.436;2022-07-25T01:55:50;17.40;99.90
5196;DHT22;2617;51.006;12.436;2022-07-25T02:00:52;17.40;99.90
5196;DHT22;2617;51.006;12.436;2022-07-25T02:05:58;17.30;99.90
5196;DHT22;2617;51.006;12.436;2022-07-25T02:10:59;17.30;99.90
5196;DHT22;2617;51.006;12.436;2022-07-25T02:16:02;17.20;99.90
5196;DHT22;2617;51.006;12.436;2022-07-25T02:21:04;17.10;99.90
5196;DHT22;2617;51.006;12.436;2022-07-25T02:26:07;17.10;99.90
5196;DHT22;2617;51.006;12.436;2022-07-25T02:31:10;17.00;99.90
5196;DHT22;2617;51.006;12.436;2022-07-25T02:36:12;17.00;99.90
5196;DHT22;2617;51.006;12.436;2022-07-25T02:41:14;16.90;99.90
5196;DHT22;2617;51.006;12.436;2022-07-25T02:46:17;16.90;99.90
5196;DHT22;2617;51.006;12.436;2022-07-25T02:51:20;16.90;99.90
5196;DHT22;2617;51.006;12.436;2022-07-25T02:56:23;16.80;99.90
5196;DHT22;2617;51.006;12.436;2022-07-25T03:01:25;16.80;99.90
5196;DHT22;2617;51.006;12.436;2022-07-25T03:06:28;16.80;99.90
5196;DHT22;2617;51.006;12.436;2022-07-25T03:11:31;16.80;99.90
5196;DHT22;2617;51.006;12.436;2022-07-25T03:16:34;16.80;99.90
5196;DHT22;2617;51.006;12.436;2022-07-25T03:21:37;16.80;99.90
5196;DHT22;2617;51.006;12.436;2022-07-25T03:26:39;16.80;99.90
5196;DHT22;2617;51.006;12.436;2022-07-25T03:31:41;16.80;99.90
5196;DHT22;2617;51.006;12.436;2022-07-25T03:36:44;16.80;99.90
5196;DHT22;2617;51.006;12.436;2022-07-25T03:41:46;16.90;99.90
5196;DHT22;2617;51.006;12.436;2022-07-25T03:46:49;17.00;99.90
5196;DHT22;2617;51.006;12.436;2022-07-25T03:51:52;17.20;99.90
5196;DHT22;2617;51.006;12.436;2022-07-25T03:56:54;17.60;99.90
5196;DHT22;2617;51.006;12.436;2022-07-25T04:01:57;18.20;99.90
5196;DHT22;2617;51.006;12.436;2022-07-25T04:06:59;19.30;99.90
5196;DHT22;2617;51.006;12.436;2022-07-25T04:12:02;21.40;98.40
5196;DHT22;2617;51.006;12.436;2022-07-25T04:17:05;21.40;98.30
5196;DHT22;2617;51.006;12.436;2022-07-25T04:22:08;22.90;95.60
5196;DHT22;2617;51.006;12.436;2022-07-25T04:27:10;23.60;93.50
5196;DHT22;2617;51.006;12.436;2022-07-25T04:32:12;23.50;92.90
5196;DHT22;2617;51.006;12.436;2022-07-25T04:37:15;24.70;92.40
5196;DHT22;2617;51.006;12.436;2022-07-25T04:42:18;27.80;84.70
5196;DHT22;2617;51.006;12.436;2022-07-25T04:47:20;27.70;83.80
5196;DHT22;2617;51.006;12.436;2022-07-25T04:52:23;28.00;82.10
5196;DHT22;2617;51.006;12.436;2022-07-25T04:57:25;28.90;79.50
5196;DHT22;2617;51.006;12.436;2022-07-25T05:02:28;29.90;76.50
5196;DHT22;2617;51.006;12.436;2022-07-25T05:07:30;30.90;72.90
5196;DHT22;2617;51.006;12.436;2022-07-25T05:12:33;31.70;70.10
5196;DHT22;2617;51.006;12.436;2022-07-25T05:17:35;32.00;68.60
5196;DHT22;2617;51.006;12.436;2022-07-25T05:22:38;32.00;68.30
5196;DHT22;2617;51.006;12.436;2022-07-25T05:27:40;32.00;68.20
5196;DHT22;2617;51.006;12.436;2022-07-25T05:32:42;31.60;68.60
5196;DHT22;2617;51.006;12.436;2022-07-25T05:37:45;30.80;70.30
5196;DHT22;2617;51.006;12.436;2022-07-25T05:42:47;29.70;72.80
5196;DHT22;2617;51.006;12.436;2022-07-25T05:47:50;28.50;76.00
5196;DHT22;2617;51.006;12.436;2022-07-25T05:52:52;27.20;79.90
5196;DHT22;2617;51.006;12.436;2022-07-25T05:57:55;26.40;82.90
5196;DHT22;2617;51.006;12.436;2022-07-25T06:02:57;25.90;84.30
5196;DHT22;2617;51.006;12.436;2022-07-25T06:08:00;25.60;85.40
5196;DHT22;2617;51.006;12.436;2022-07-25T06:13:02;25.50;86.40
5196;DHT22;2617;51.006;12.436;2022-07-25T06:18:05;25.50;86.50
5196;DHT22;2617;51.006;12.436;2022-07-25T06:23:07;25.70;87.00
5196;DHT22;2617;51.006;12.436;2022-07-25T06:28:10;25.80;86.70
5196;DHT22;2617;51.006;12.436;2022-07-25T06:33:12;25.90;86.20
5196;DHT22;2617;51.006;12.436;2022-07-25T06:38:15;26.20;85.80
5196;DHT22;2617;51.006;12.436;2022-07-25T06:43:17;26.50;85.40
5196;DHT22;2617;51.006;12.436;2022-07-25T06:48:20;26.70;84.60
5196;DHT22;2617;51.006;12.436;2022-07-25T06:53:22;27.10;84.00
5196;DHT22;2617;51.006;12.436;2022-07-25T06:58:25;27.70;82.20
5196;DHT22;2617;51.006;12.436;2022-07-25T07:03:28;27.70;82.10
5196;DHT22;2617;51.006;12.436;2022-07-25T07:08:30;27.90;80.60
5196;DHT22;2617;51.006;12.436;2022-07-25T07:13:33;28.20;80.40
5196;DHT22;2617;51.006;12.436;2022-07-25T07:18:35;28.60;79.70
5196;DHT22;2617;51.006;12.436;2022-07-25T07:23:38;29.40;76.20
5196;DHT22;2617;51.006;12.436;2022-07-25T07:28:41;29.30;76.10
5196;DHT22;2617;51.006;12.436;2022-07-25T07:33:43;29.50;74.90
5196;DHT22;2617;51.006;12.436;2022-07-25T07:38:46;29.70;74.90
5196;DHT22;2617;51.006;12.436;2022-07-25T07:43:49;30.20;73.50
5196;DHT22;2617;51.006;12.436;2022-07-25T07:48:51;30.10;73.30
5196;DHT22;2617;51.006;12.436;2022-07-25T07:53:54;30.30;73.80
5196;DHT22;2617;51.006;12.436;2022-07-25T07:59:02;30.50;72.10
5196;DHT22;2617;51.006;12.436;2022-07-25T08:04:04;30.30;70.50
5196;DHT22;2617;51.006;12.436;2022-07-25T08:09:08;30.60;70.00
5196;DHT22;2617;51.006;12.436;2022-07-25T08:14:11;30.70;70.00
5196;DHT22;2617;51.006;12.436;2022-07-25T08:19:13;30.80;70.10
5196;DHT22;2617;51.006;12.436;2022-07-25T08:24:16;30.90;69.00
5196;DHT22;2617;51.006;12.436;2022-07-25T08:29:18;31.10;69.20
5196;DHT22;2617;51.006;12.436;2022-07-25T08:34:20;31.30;67.50
5196;DHT22;2617;51.006;12.436;2022-07-25T08:39:24;31.90;67.00
5196;DHT22;2617;51.006;12.436;2022-07-25T08:44:26;31.90;66.90
5196;DHT22;2617;51.006;12.436;2022-07-25T08:49:29;32.20;64.20
5196;DHT22;2617;51.006;12.436;2022-07-25T08:54:31;32.20;63.00
5196;DHT22;2617;51.006;12.436;2022-07-25T08:59:34;32.20;64.00
5196;DHT22;2617;51.006;12.436;2022-07-25T09:04:36;32.30;62.90
5196;DHT22;2617;51.006;12.436;2022-07-25T09:09:39;32.50;61.50
5196;DHT22;2617;51.006;12.436;2022-07-25T09:14:42;32.50;60.10
5196;DHT22;2617;51.006;12.436;2022-07-25T09:19:52;32.70;59.20
5196;DHT22;2617;51.006;12.436;2022-07-25T09:24:53;32.70;59.10
5196;DHT22;2617;51.006;12.436;2022-07-25T09:29:57;32.80;58.90
5196;DHT22;2617;51.006;12.436;2022-07-25T09:34:59;33.00;58.70
5196;DHT22;2617;51.006;12.436;2022-07-25T09:40:10;33.20;58.40
5196;DHT22;2617;51.006;12.436;2022-07-25T09:45:10;33.70;56.10
5196;DHT22;2617;51.006;12.436;2022-07-25T09:50:12;33.70;56.10
5196;DHT22;2617;51.006;12.436;2022-07-25T09:55:14;33.80;56.40
5196;DHT22;2617;51.006;12.436;2022-07-25T10:00:19;34.30;54.60
5196;DHT22;2617;51.006;12.436;2022-07-25T10:05:43;34.30;53.60
5196;DHT22;2617;51.006;12.436;2022-07-25T10:10:46;34.50;52.50
5196;DHT22;2617;51.006;12.436;2022-07-25T10:15:49;34.40;52.40
5196;DHT22;2617;51.006;12.436;2022-07-25T10:26:00;34.40;51.60
5196;DHT22;2617;51.006;12.436;2022-07-25T10:36:15;34.40;52.50
5196;DHT22;2617;51.006;12.436;2022-07-25T10:41:18;34.50;51.40
5196;DHT22;2617;51.006;12.436;2022-07-25T10:46:21;34.80;50.40
5196;DHT22;2617;51.006;12.436;2022-07-25T10:51:25;34.70;50.30
5196;DHT22;2617;51.006;12.436;2022-07-25T10:56:28;34.80;50.60
5196;DHT22;2617;51.006;12.436;2022-07-25T11:01:32;35.00;48.90
5196;DHT22;2617;51.006;12.436;2022-07-25T11:06:36;35.00;49.60
5196;DHT22;2617;51.006;12.436;2022-07-25T11:11:40;35.40;47.60
5196;DHT22;2617;51.006;12.436;2022-07-25T11:16:43;35.30;47.60
5196;DHT22;2617;51.006;12.436;2022-07-25T11:21:49;35.50;48.40
5196;DHT22;2617;51.006;12.436;2022-07-25T11:26:51;35.70;48.40
5196;DHT22;2617;51.006;12.436;2022-07-25T11:31:57;35.60;48.00
5196;DHT22;2617;51.006;12.436;2022-07-25T11:36:59;35.60;47.30
5196;DHT22;2617;51.006;12.436;2022-07-25T11:42:05;36.00;47.30
5196;DHT22;2617;51.006;12.436;2022-07-25T11:47:20;36.10;46.50
5196;DHT22;2617;51.006;12.436;2022-07-25T11:52:18;36.20;46.20
5196;DHT22;2617;51.006;12.436;2022-07-25T11:57:23;36.10;45.60
5196;DHT22;2617;51.006;12.436;2022-07-25T12:02:30;36.10;46.50
5196;DHT22;2617;51.006;12.436;2022-07-25T12:07:34;36.10;46.30
5196;DHT22;2617;51.006;12.436;2022-07-25T12:12:47;36.30;46.00
5196;DHT22;2617;51.006;12.436;2022-07-25T12:17:50;36.30;46.50
5196;DHT22;2617;51.006;12.436;2022-07-25T12:22:54;36.60;45.20
5196;DHT22;2617;51.006;12.436;2022-07-25T12:27:56;36.60;45.20
5196;DHT22;2617;51.006;12.436;2022-07-25T12:33:00;36.60;45.80
5196;DHT22;2617;51.006;12.436;2022-07-25T12:38:02;36.80;45.80
5196;DHT22;2617;51.006;12.436;2022-07-25T12:43:05;37.00;44.80
5196;DHT22;2617;51.006;12.436;2022-07-25T12:48:07;37.20;44.30
5196;DHT22;2617;51.006;12.436;2022-07-25T12:53:11;36.80;43.30
5196;DHT22;2617;51.006;12.436;2022-07-25T12:58:13;36.80;43.30
5196;DHT22;2617;51.006;12.436;2022-07-25T13:03:16;37.00;42.80
5196;DHT22;2617;51.006;12.436;2022-07-25T13:08:20;37.20;42.60
5196;DHT22;2617;51.006;12.436;2022-07-25T13:13:22;37.10;42.50
5196;DHT22;2617;51.006;12.436;2022-07-25T13:18:25;37.50;42.80
5196;DHT22;2617;51.006;12.436;2022-07-25T13:23:28;37.50;42.70
5196;DHT22;2617;51.006;12.436;2022-07-25T13:28:30;37.80;40.10
5196;DHT22;2617;51.006;12.436;2022-07-25T13:33:33;37.90;39.80
5196;DHT22;2617;51.006;12.436;2022-07-25T13:38:35;37.80;40.20
5196;DHT22;2617;51.006;12.436;2022-07-25T13:43:38;38.00;41.30
5196;DHT22;2617;51.006;12.436;2022-07-25T13:48:40;38.00;40.20
5196;DHT22;2617;51.006;12.436;2022-07-25T13:53:43;38.20;38.90
5196;DHT22;2617;51.006;12.436;2022-07-25T13:58:45;38.20;38.90
5196;DHT22;2617;51.006;12.436;2022-07-25T14:03:48;36.90;40.70
5196;DHT22;2617;51.006;12.436;2022-07-25T14:08:51;36.90;40.00
5196;DHT22;2617;51.006;12.436;2022-07-25T14:13:53;36.60;40.50
5196;DHT22;2617;51.006;12.436;2022-07-25T14:18:56;36.50;40.40
5196;DHT22;2617;51.006;12.436;2022-07-25T14:23:59;36.40;40.30
5196;DHT22;2617;51.006;12.436;2022-07-25T14:29:02;36.40;40.20
5196;DHT22;2617;51.006;12.436;2022-07-25T14:34:04;36.40;41.00
5196;DHT22;2617;51.006;12.436;2022-07-25T14:39:07;36.50;41.40
5196;DHT22;2617;51.006;12.436;2022-07-25T14:44:10;37.30;40.40
5196;DHT22;2617;51.006;12.436;2022-07-25T14:49:13;37.20;40.40
5196;DHT22;2617;51.006;12.436;2022-07-25T14:54:15;37.40;39.80
5196;DHT22;2617;51.006;12.436;2022-07-25T14:59:17;37.40;40.00
5196;DHT22;2617;51.006;12.436;2022-07-25T15:04:20;37.40;39.70
5196;DHT22;2617;51.006;12.436;2022-07-25T15:09:23;37.20;40.40
5196;DHT22;2617;51.006;12.436;2022-07-25T15:14:25;37.00;41.20
5196;DHT22;2617;51.006;12.436;2022-07-25T15:19:28;36.70;41.60
5196;DHT22;2617;51.006;12.436;2022-07-25T15:24:32;36.60;41.50
5196;DHT22;2617;51.006;12.436;2022-07-25T15:29:34;36.50;41.40
5196;DHT22;2617;51.006;12.436;2022-07-25T15:34:37;36.10;41.70
5196;DHT22;2617;51.006;12.436;2022-07-25T15:39:40;36.10;41.70
5196;DHT22;2617;51.006;12.436;2022-07-25T15:44:42;36.00;42.20
5196;DHT22;2617;51.006;12.436;2022-07-25T15:49:44;35.90;42.20
5196;DHT22;2617;51.006;12.436;2022-07-25T15:54:47;35.80;41.50
5196;DHT22;2617;51.006;12.436;2022-07-25T15:59:49;35.80;42.60
5196;DHT22;2617;51.006;12.436;2022-07-25T16:04:52;35.70;42.20
5196;DHT22;2617;51.006;12.436;2022-07-25T16:09:54;35.50;43.50
5196;DHT22;2617;51.006;12.436;2022-07-25T16:14:57;35.50;43.50
5196;DHT22;2617;51.006;12.436;2022-07-25T16:20:00;35.40;44.70
5196;DHT22;2617;51.006;12.436;2022-07-25T16:25:03;35.40;44.70
5196;DHT22;2617;51.006;12.436;2022-07-25T16:30:07;35.40;45.30
5196;DHT22;2617;51.006;12.436;2022-07-25T16:35:10;35.40;45.30
5196;DHT22;2617;51.006;12.436;2022-07-25T16:40:12;35.30;45.70
5196;DHT22;2617;51.006;12.436;2022-07-25T16:45:15;34.90;46.40
5196;DHT22;2617;51.006;12.436;2022-07-25T16:50:17;33.80;51.40
5196;DHT22;2617;51.006;12.436;2022-07-25T16:55:20;29.70;62.20
5196;DHT22;2617;51.006;12.436;2022-07-25T17:00:24;28.80;65.70
5196;DHT22;2617;51.006;12.436;2022-07-25T17:05:26;28.80;65.70
5196;DHT22;2617;51.006;12.436;2022-07-25T17:10:29;28.10;72.00
5196;DHT22;2617;51.006;12.436;2022-07-25T17:15:33;28.00;71.80
5196;DHT22;2617;51.006;12.436;2022-07-25T17:20:36;27.10;78.60
5196;DHT22;2617;51.006;12.436;2022-07-25T17:25:39;27.10;78.60
5196;DHT22;2617;51.006;12.436;2022-07-25T17:30:41;26.50;83.00
5196;DHT22;2617;51.006;12.436;2022-07-25T17:35:43;26.30;87.30
5196;DHT22;2617;51.006;12.436;2022-07-25T17:40:46;26.00;90.20
5196;DHT22;2617;51.006;12.436;2022-07-25T17:45:48;25.70;92.10
5196;DHT22;2617;51.006;12.436;2022-07-25T17:50:51;25.70;94.60
5196;DHT22;2617;51.006;12.436;2022-07-25T17:55:54;25.70;94.60
5196;DHT22;2617;51.006;12.436;2022-07-25T18:00:56;25.90;95.30
5196;DHT22;2617;51.006;12.436;2022-07-25T18:05:59;25.90;95.90
5196;DHT22;2617;51.006;12.436;2022-07-25T18:11:02;25.90;95.90
5196;DHT22;2617;51.006;12.436;2022-07-25T18:16:07;25.90;96.10
5196;DHT22;2617;51.006;12.436;2022-07-25T18:21:09;25.90;96.10
5196;DHT22;2617;51.006;12.436;2022-07-25T18:26:12;26.00;95.10
5196;DHT22;2617;51.006;12.436;2022-07-25T18:31:15;26.00;95.10
5196;DHT22;2617;51.006;12.436;2022-07-25T18:36:17;26.00;94.80
5196;DHT22;2617;51.006;12.436;2022-07-25T18:41:21;25.90;94.70
5196;DHT22;2617;51.006;12.436;2022-07-25T18:46:24;25.80;95.30
5196;DHT22;2617;51.006;12.436;2022-07-25T18:51:26;25.70;95.20
5196;DHT22;2617;51.006;12.436;2022-07-25T18:56:29;25.60;95.90
5196;DHT22;2617;51.006;12.436;2022-07-25T19:01:32;25.50;97.40
5196;DHT22;2617;51.006;12.436;2022-07-25T19:06:35;25.50;98.00
5196;DHT22;2617;51.006;12.436;2022-07-25T19:11:38;25.40;97.90
5196;DHT22;2617;51.006;12.436;2022-07-25T19:16:40;25.30;98.20
5196;DHT22;2617;51.006;12.436;2022-07-25T19:21:43;25.20;99.00
5196;DHT22;2617;51.006;12.436;2022-07-25T19:26:45;25.00;99.60
5196;DHT22;2617;51.006;12.436;2022-07-25T19:31:48;24.90;99.70
5196;DHT22;2617;51.006;12.436;2022-07-25T19:36:50;24.80;99.90
5196;DHT22;2617;51.006;12.436;2022-07-25T19:41:54;24.60;99.90
5196;DHT22;2617;51.006;12.436;2022-07-25T19:46:56;24.60;99.90
5196;DHT22;2617;51.006;12.436;2022-07-25T19:51:59;24.60;99.90
5196;DHT22;2617;51.006;12.436;2022-07-25T19:57:02;24.50;99.90
5196;DHT22;2617;51.006;12.436;2022-07-25T20:02:05;24.50;99.90
5196;DHT22;2617;51.006;12.436;2022-07-25T20:07:08;24.40;99.90
5196;DHT22;2617;51.006;12.436;2022-07-25T20:12:11;24.40;99.90
5196;DHT22;2617;51.006;12.436;2022-07-25T20:17:13;24.40;99.90
5196;DHT22;2617;51.006;12.436;2022-07-25T20:22:16;24.40;99.90
5196;DHT22;2617;51.006;12.436;2022-07-25T20:27:18;24.40;99.90
5196;DHT22;2617;51.006;12.436;2022-07-25T20:32:21;24.30;99.90
5196;DHT22;2617;51.006;12.436;2022-07-25T20:37:23;24.20;99.90
5196;DHT22;2617;51.006;12.436;2022-07-25T20:42:26;24.10;99.90
5196;DHT22;2617;51.006;12.436;2022-07-25T20:47:29;24.00;99.90
5196;DHT22;2617;51.006;12.436;2022-07-25T20:52:31;24.00;99.90
5196;DHT22;2617;51.006;12.436;2022-07-25T20:57:34;24.00;99.90
5196;DHT22;2617;51.006;12.436;2022-07-25T21:02:36;24.00;99.90
5196;DHT22;2617;51.006;12.436;2022-07-25T21:07:39;23.90;99.90
5196;DHT22;2617;51.006;12.436;2022-07-25T21:12:42;23.80;99.90
5196;DHT22;2617;51.006;12.436;2022-07-25T21:17:45;23.80;99.90
5196;DHT22;2617;51.006;12.436;2022-07-25T21:22:48;23.70;99.90
5196;DHT22;2617;51.006;12.436;2022-07-25T21:27:50;23.60;99.90
5196;DHT22;2617;51.006;12.436;2022-07-25T21:32:52;23.30;99.90
5196;DHT22;2617;51.006;12.436;2022-07-25T21:37:55;23.20;99.90
5196;DHT22;2617;51.006;12.436;2022-07-25T21:42:58;23.10;99.90
5196;DHT22;2617;51.006;12.436;2022-07-25T21:48:00;23.10;99.90
5196;DHT22;2617;51.006;12.436;2022-07-25T21:53:05;22.90;99.90
5196;DHT22;2617;51.006;12.436;2022-07-25T21:58:07;22.70;99.90
5196;DHT22;2617;51.006;12.436;2022-07-25T22:03:10;22.70;99.90
5196;DHT22;2617;51.006;12.436;2022-07-25T22:08:12;22.50;99.90
5196;DHT22;2617;51.006;12.436;2022-07-25T22:13:15;22.40;99.90
5196;DHT22;2617;51.006;12.436;2022-07-25T22:18:17;22.30;99.90
5196;DHT22;2617;51.006;12.436;2022-07-25T22:23:20;22.30;99.90
5196;DHT22;2617;51.006;12.436;2022-07-25T22:28:22;22.20;99.90
5196;DHT22;2617;51.006;12.436;2022-07-25T22:33:24;22.10;99.90
5196;DHT22;2617;51.006;12.436;2022-07-25T22:38:27;22.00;99.90
5196;DHT22;2617;51.006;12.436;2022-07-25T22:43:29;22.00;99.90
5196;DHT22;2617;51.006;12.436;2022-07-25T22:48:32;21.80;99.90
5196;DHT22;2617;51.006;12.436;2022-07-25T22:53:34;21.70;99.90
5196;DHT22;2617;51.006;12.436;2022-07-25T22:58:37;21.50;99.90
5196;DHT22;2617;51.006;12.436;2022-07-25T23:03:40;21.30;99.90
5196;DHT22;2617;51.006;12.436;2022-07-25T23:08:42;21.30;99.90
5196;DHT22;2617;51.006;12.436;2022-07-25T23:13:45;21.30;99.90
5196;DHT22;2617;51.006;12.436;2022-07-25T23:18:47;21.30;99.90
5196;DHT22;2617;51.006;12.436;2022-07-25T23:23:50;21.20;99.90
5196;DHT22;2617;51.006;12.436;2022-07-25T23:28:53;21.20;99.90
5196;DHT22;2617;51.006;12.436;2022-07-25T23:33:55;21.10;99.90
5196;DHT22;2617;51.006;12.436;2022-07-25T23:38:58;21.20;99.90
5196;DHT22;2617;51.006;12.436;2022-07-25T23:44:00;21.10;99.90
5196;DHT22;2617;51.006;12.436;2022-07-25T23:49:03;21.10;99.90
5196;DHT22;2617;51.006;12.436;2022-07-25T23:54:06;21.10;99.90
5196;DHT22;2617;51.006;12.436;2022-07-25T23:59:09;21.00;99.90
